Adams Field Little Rock US
ICAO: KLIT
IATA: LIT
Category: Large
Scheduled Services: Yes

Elevation: 262 ft
TransAlt. 18000 ft.

Airport Communications:
LITTLE ROCK APP/DEP:119.5
ATIS:125.65
CLNC DEL:118.95
GND:121.9
JONESBORO RDO:122.2
TWR:118.7
UNICOM:122.95

KLIT Zoom In..

Runways:

(A) RW 04L length 8273 ft width 150 ft
ILS 110.30 / hdg 45

(B) RW 04R length 8251 ft width 150 ft
ILS 111.30 / hdg 45

(C) RW 18 length 6224 ft width 150 ft
---- / hdg 180

(D) RW 22L length 8251 ft width 150 ft
ILS 110.70 / hdg 225

(E) RW 22R length 8273 ft width 150 ft
ILS 110.30 / hdg 225

(F) RW 36 length 6224 ft width 150 ft
---- / hdg 360

Location; KLIT
Day. 26 / Time. 03.53 Zulu
* Altimeter: 29.88
* Temperature: 22° c. 71.6°f.
* Wind from: 160° Speed 04 kn.
Dewpoint: 22° c.
Visibility: 10 Statute Miles.
Clouds: Scattered 12000 ft.
Clouds: Overcast 25000 ft.
Conditions: Cumulonimbus.

KLIT 260353Z 16004KT 10SM SCT120 OVC250 22/22 A2988 RMK AO2 SLP118 OCNL LTGIC DSNT NW CB DSNT NW MOV E T02220217


Wind From 160°
Speed 04 kn.

 
 
jpsmedia.com for Web Design SOUNDCLOUD worldairports.se 2018   terms of use